Time;durP1;ratioP1;P1;durP2;ratioP2;P2;SDS_P1;SDS_P2;PMS_P1;PMS_P2;Temp;Humidity;BMP_temperature;BMP_pressure;BME280_temperature;BME280_humidity;BME280_pressure;Samples;Min_cycle;Max_cycle;Signal;HPM_P1;HPM_P2
2021/01/22 00:01:56;;;;;;;2.80;2.60;;;7.90;99.90;;;;;;5007639;28;20161;-78
2021/01/22 00:04:24;;;;;;;4.40;2.60;;;7.80;99.90;;;;;;5020986;28;20166;-78
2021/01/22 00:06:53;;;;;;;2.60;2.40;;;7.80;99.90;;;;;;5003838;28;20490;-78
2021/01/22 00:09:19;;;;;;;3.83;2.37;;;7.70;99.90;;;;;;5023212;28;20385;-78
2021/01/22 00:11:46;;;;;;;2.47;2.27;;;7.60;99.90;;;;;;4990649;28;20419;-77
2021/01/22 00:14:12;;;;;;;4.57;2.47;;;7.60;99.90;;;;;;4940462;29;20423;-77
2021/01/22 00:16:38;;;;;;;3.33;3.03;;;7.60;99.90;;;;;;4927754;29;20414;-81
2021/01/22 00:19:03;;;;;;;4.23;3.00;;;7.60;99.90;;;;;;4933980;29;20195;-80
2021/01/22 00:21:29;;;;;;;6.43;2.50;;;7.50;99.90;;;;;;4924302;29;20161;-78
2021/01/22 00:23:56;;;;;;;2.70;2.50;;;7.50;99.90;;;;;;4925927;29;20181;-80
2021/01/22 00:26:22;;;;;;;2.53;2.33;;;7.50;99.90;;;;;;4908297;29;20475;-79
2021/01/22 00:28:48;;;;;;;2.60;2.40;;;7.60;99.90;;;;;;4914234;29;20828;-78
2021/01/22 00:31:16;;;;;;;3.20;2.70;;;7.60;99.90;;;;;;4942088;29;20418;-76
2021/01/22 00:33:42;;;;;;;2.60;2.40;;;7.70;99.90;;;;;;4928931;29;20204;-76
2021/01/22 00:36:09;;;;;;;2.60;2.40;;;7.70;99.90;;;;;;4925818;29;20378;-78
2021/01/22 00:38:35;;;;;;;2.97;2.67;;;7.70;99.90;;;;;;4954323;29;20574;-80
2021/01/22 00:41:00;;;;;;;2.33;2.13;;;7.80;99.90;;;;;;4932155;29;20416;-79
2021/01/22 00:43:26;;;;;;;5.40;2.67;;;7.90;99.90;;;;;;4948386;29;20212;-79
2021/01/22 00:45:52;;;;;;;2.90;2.70;;;7.80;99.90;;;;;;4963081;28;20259;-80
2021/01/22 00:48:18;;;;;;;2.23;2.03;;;7.90;99.90;;;;;;4983824;28;20182;-79
2021/01/22 00:50:44;;;;;;;4.10;2.10;;;7.80;99.90;;;;;;4973177;28;20383;-80
2021/01/22 00:53:10;;;;;;;2.83;2.40;;;7.90;99.90;;;;;;5005404;28;20157;-79
2021/01/22 00:55:36;;;;;;;5.60;2.37;;;7.90;99.90;;;;;;5006631;28;20204;-79
2021/01/22 00:58:02;;;;;;;1.70;1.60;;;7.90;99.90;;;;;;5024154;28;20166;-80
2021/01/22 01:00:28;;;;;;;1.93;1.77;;;7.90;99.90;;;;;;5023245;28;20383;-80
2021/01/22 01:02:57;;;;;;;3.83;2.53;;;7.90;99.90;;;;;;5023642;28;20479;-79
2021/01/22 01:05:23;;;;;;;3.33;1.87;;;7.90;99.90;;;;;;5023312;28;20577;-80
2021/01/22 01:07:48;;;;;;;3.17;2.30;;;8.00;99.90;;;;;;5009104;28;20453;-79
2021/01/22 01:10:14;;;;;;;2.60;1.60;;;8.10;99.90;;;;;;5048086;28;20172;-80
2021/01/22 01:12:41;;;;;;;1.90;1.50;;;8.10;99.90;;;;;;5052578;28;20161;-80
2021/01/22 01:15:08;;;;;;;1.77;1.63;;;8.30;99.90;;;;;;5057636;28;20199;-79
2021/01/22 01:17:34;;;;;;;3.93;2.50;;;8.30;99.90;;;;;;5056477;28;20411;-79
2021/01/22 01:20:00;;;;;;;3.70;2.00;;;8.20;99.90;;;;;;5043523;28;20400;-80
2021/01/22 01:22:26;;;;;;;2.00;1.90;;;8.30;99.90;;;;;;5021655;28;20403;-79
2021/01/22 01:24:52;;;;;;;1.93;1.67;;;8.20;99.90;;;;;;4993444;28;20231;-80
2021/01/22 01:27:17;;;;;;;2.03;1.83;;;8.30;99.90;;;;;;5022262;28;20197;-80
2021/01/22 01:29:43;;;;;;;2.33;1.93;;;8.20;99.90;;;;;;5022585;28;20170;-80
2021/01/22 01:32:09;;;;;;;3.87;1.83;;;8.30;99.90;;;;;;5022559;28;20168;-79
2021/01/22 01:34:35;;;;;;;1.77;1.67;;;8.40;99.90;;;;;;5004108;28;20239;-79
2021/01/22 01:37:00;;;;;;;1.70;1.60;;;8.40;99.90;;;;;;5022297;28;20205;-79
2021/01/22 01:39:26;;;;;;;3.60;1.97;;;8.50;99.90;;;;;;5022121;28;20200;-79
2021/01/22 01:41:52;;;;;;;2.23;1.70;;;8.50;99.90;;;;;;5005537;28;20193;-80
2021/01/22 01:44:18;;;;;;;1.77;1.67;;;8.50;99.90;;;;;;5023630;28;20169;-79
2021/01/22 01:46:43;;;;;;;2.23;2.03;;;8.50;99.90;;;;;;5005423;28;20228;-79
2021/01/22 01:49:09;;;;;;;1.70;1.60;;;8.50;99.90;;;;;;5005600;28;20196;-79
2021/01/22 01:51:35;;;;;;;2.30;1.63;;;8.50;99.90;;;;;;5025871;28;20165;-80
2021/01/22 01:54:01;;;;;;;1.70;1.50;;;8.50;99.90;;;;;;5011523;28;20355;-79
2021/01/22 01:56:27;;;;;;;3.00;2.23;;;8.50;99.90;;;;;;5021855;28;20391;-79
2021/01/22 01:58:53;;;;;;;1.83;1.67;;;8.40;99.90;;;;;;5025527;28;20451;-79
2021/01/22 02:01:20;;;;;;;3.20;1.60;;;8.40;99.90;;;;;;5058415;28;20164;-79
2021/01/22 02:03:46;;;;;;;1.83;1.73;;;8.40;99.90;;;;;;5058268;28;20180;-79
2021/01/22 02:06:13;;;;;;;1.80;1.70;;;8.30;99.90;;;;;;5041016;28;20463;-80
2021/01/22 02:08:40;;;;;;;2.73;2.30;;;8.30;99.90;;;;;;5056617;28;20371;-78
2021/01/22 02:11:08;;;;;;;2.83;2.03;;;8.20;99.90;;;;;;5049297;28;20384;-78
2021/01/22 02:13:35;;;;;;;1.80;1.70;;;8.20;99.90;;;;;;5038803;28;20408;-78
2021/01/22 02:16:01;;;;;;;2.40;2.20;;;8.10;99.90;;;;;;5004437;28;20414;-78
2021/01/22 02:18:29;;;;;;;2.20;1.80;;;8.00;99.90;;;;;;5021303;28;20385;-78
2021/01/22 02:21:15;;;;;;;2.80;1.87;;;7.90;99.90;;;;;;5002238;28;20404;-78
2021/01/22 02:23:45;;;;;;;1.83;1.70;;;7.90;99.90;;;;;;5019026;28;20939;-78
2021/01/22 02:26:36;;;;;;;2.20;2.00;;;7.80;99.90;;;;;;5019065;28;20431;-77
2021/01/22 02:29:05;;;;;;;2.37;2.17;;;7.80;99.90;;;;;;5006216;28;20839;-77
2021/01/22 02:31:35;;;;;;;2.53;1.73;;;7.80;99.90;;;;;;5038443;28;20473;-78
2021/01/22 02:34:05;;;;;;;2.50;2.27;;;7.80;99.90;;;;;;5021079;28;20447;-79
2021/01/22 02:36:34;;;;;;;2.80;1.80;;;7.70;99.90;;;;;;5038275;28;20431;-78
2021/01/22 02:39:03;;;;;;;3.77;1.83;;;7.70;99.90;;;;;;5038224;28;20393;-80
2021/01/22 02:41:30;;;;;;;1.97;1.80;;;7.80;99.90;;;;;;5038114;28;20535;-78
2021/01/22 02:43:57;;;;;;;1.73;1.60;;;7.80;99.90;;;;;;5038013;28;20455;-78
2021/01/22 02:46:23;;;;;;;3.33;1.87;;;7.90;99.90;;;;;;5021021;28;20443;-78
2021/01/22 02:48:50;;;;;;;3.97;1.77;;;7.90;99.90;;;;;;5017809;28;20400;-77
2021/01/22 02:51:16;;;;;;;1.60;1.50;;;7.90;99.90;;;;;;5001437;28;20512;-78
2021/01/22 02:53:42;;;;;;;3.13;2.27;;;8.00;99.90;;;;;;5019669;28;20435;-78
2021/01/22 02:56:14;;;;;;;2.10;1.90;;;8.10;99.90;;;;;;5019122;28;20271;-78
2021/01/22 02:58:49;;;;;;;3.20;2.20;;;8.20;99.90;;;;;;5020564;28;20422;-79
2021/01/22 03:01:21;;;;;;;1.87;1.77;;;8.20;99.90;;;;;;5039550;28;20381;-79
2021/01/22 03:03:57;;;;;;;1.57;1.47;;;8.30;99.90;;;;;;5041991;28;20419;-80
2021/01/22 03:06:28;;;;;;;1.77;1.50;;;8.40;99.90;;;;;;5026838;28;20556;-80
2021/01/22 03:08:55;;;;;;;1.50;1.40;;;8.40;99.90;;;;;;5041597;28;20375;-80
2021/01/22 03:11:24;;;;;;;1.77;1.67;;;8.40;99.90;;;;;;5002443;28;20418;-77
2021/01/22 03:13:53;;;;;;;3.90;2.07;;;8.40;99.90;;;;;;5019819;28;20403;-77
2021/01/22 03:16:18;;;;;;;3.90;1.97;;;8.40;99.90;;;;;;5037257;28;20374;-77
2021/01/22 03:19:01;;;;;;;1.70;1.60;;;8.50;99.90;;;;;;5014088;28;20398;-78
2021/01/22 03:21:27;;;;;;;2.13;1.93;;;8.40;99.90;;;;;;5003298;28;20245;-79
2021/01/22 03:23:53;;;;;;;4.27;1.73;;;8.40;99.90;;;;;;5007627;28;20375;-79
2021/01/22 03:26:20;;;;;;;2.27;1.60;;;8.40;99.90;;;;;;5029610;28;20197;-79
2021/01/22 03:28:45;;;;;;;1.60;1.40;;;8.50;99.90;;;;;;5030019;28;20467;-78
2021/01/22 03:31:12;;;;;;;1.80;1.70;;;8.50;99.90;;;;;;5011013;28;20762;-79
2021/01/22 03:33:38;;;;;;;3.83;1.80;;;8.50;99.90;;;;;;4993421;28;20540;-79
2021/01/22 03:36:05;;;;;;;1.50;1.40;;;8.50;99.90;;;;;;5024642;28;20393;-77
2021/01/22 03:38:31;;;;;;;2.17;2.00;;;8.50;99.90;;;;;;5024976;28;20404;-79
2021/01/22 03:40:57;;;;;;;2.13;1.53;;;8.60;99.90;;;;;;5028446;28;20435;-77
2021/01/22 03:43:23;;;;;;;1.70;1.60;;;8.60;99.90;;;;;;5042363;28;20391;-78
2021/01/22 03:45:49;;;;;;;1.23;1.13;;;8.60;99.90;;;;;;5033671;28;20184;-80
2021/01/22 03:48:14;;;;;;;1.43;1.33;;;8.60;99.90;;;;;;5027251;28;20176;-77
2021/01/22 03:50:40;;;;;;;2.50;2.07;;;8.60;99.90;;;;;;5010070;28;20409;-79
2021/01/22 03:53:06;;;;;;;1.60;1.50;;;8.60;99.90;;;;;;5005782;28;20193;-78
2021/01/22 03:55:32;;;;;;;1.40;1.30;;;8.60;99.90;;;;;;5023595;28;20237;-80
2021/01/22 03:57:57;;;;;;;2.30;2.10;;;8.50;99.90;;;;;;5025870;28;20161;-80
2021/01/22 04:00:23;;;;;;;1.80;1.70;;;8.50;99.90;;;;;;4984972;28;20185;-80
2021/01/22 04:02:49;;;;;;;2.60;1.57;;;8.50;99.90;;;;;;5025302;28;20169;-80
2021/01/22 04:05:15;;;;;;;1.70;1.30;;;8.50;99.90;;;;;;5025713;28;20267;-80
2021/01/22 04:07:41;;;;;;;1.80;1.70;;;8.50;99.90;;;;;;5008481;28;20284;-80
2021/01/22 04:10:07;;;;;;;1.93;1.83;;;8.50;99.90;;;;;;5003699;28;20173;-80
2021/01/22 04:12:35;;;;;;;1.67;1.57;;;8.50;99.90;;;;;;5023840;28;20258;-77
2021/01/22 04:15:02;;;;;;;1.57;1.40;;;8.50;99.90;;;;;;5042865;28;20407;-77
2021/01/22 04:17:29;;;;;;;1.30;1.20;;;8.50;99.90;;;;;;5027000;28;20437;-79
2021/01/22 04:19:55;;;;;;;1.67;1.57;;;8.70;99.90;;;;;;5045602;28;20461;-79
2021/01/22 04:22:20;;;;;;;1.30;1.20;;;8.60;99.90;;;;;;5011454;28;20374;-79
2021/01/22 04:24:46;;;;;;;1.60;1.50;;;8.60;99.90;;;;;;5048161;28;20165;-79
2021/01/22 04:27:12;;;;;;;2.00;1.50;;;8.70;99.90;;;;;;5048325;28;20239;-79
2021/01/22 04:29:39;;;;;;;1.87;1.50;;;8.70;99.90;;;;;;5028937;28;20193;-79
2021/01/22 04:32:06;;;;;;;1.50;1.40;;;8.70;99.90;;;;;;5023665;28;20154;-78
2021/01/22 04:34:32;;;;;;;1.30;1.20;;;8.60;99.90;;;;;;5005920;28;20432;-78
2021/01/22 04:36:58;;;;;;;1.40;1.30;;;8.60;99.90;;;;;;5003684;28;20412;-77
2021/01/22 04:39:24;;;;;;;2.03;1.83;;;8.60;99.90;;;;;;5025503;28;20767;-77
2021/01/22 04:41:51;;;;;;;1.50;1.37;;;8.60;99.90;;;;;;5025348;28;20197;-79
2021/01/22 04:44:17;;;;;;;1.67;1.37;;;8.60;99.90;;;;;;5025946;28;20165;-79
2021/01/22 04:46:44;;;;;;;1.27;1.17;;;8.60;99.90;;;;;;5042638;28;20883;-78
2021/01/22 04:49:11;;;;;;;2.60;1.40;;;8.50;99.90;;;;;;5042702;28;20185;-79
2021/01/22 04:51:37;;;;;;;1.50;1.40;;;8.50;99.90;;;;;;5043830;28;20366;-79
2021/01/22 04:54:08;;;;;;;1.47;1.37;;;8.50;99.90;;;;;;5027060;28;20378;-79
2021/01/22 04:56:38;;;;;;;1.63;1.47;;;8.50;99.90;;;;;;5043997;28;20374;-79
2021/01/22 04:59:12;;;;;;;1.40;1.30;;;8.50;99.90;;;;;;5042931;28;20395;-79
2021/01/22 05:01:38;;;;;;;1.40;1.30;;;8.40;99.90;;;;;;5007387;28;20405;-78
2021/01/22 05:04:04;;;;;;;1.30;1.20;;;8.30;99.90;;;;;;5024389;28;20487;-79
2021/01/22 05:06:30;;;;;;;1.70;1.60;;;8.30;99.90;;;;;;5040016;28;20867;-79
2021/01/22 05:08:56;;;;;;;1.30;1.20;;;8.30;99.90;;;;;;5043725;28;20388;-79
2021/01/22 05:11:23;;;;;;;1.30;1.20;;;8.20;99.90;;;;;;5007253;28;20405;-79
2021/01/22 05:13:49;;;;;;;1.43;1.33;;;8.20;99.90;;;;;;5024265;28;20417;-79
2021/01/22 05:16:16;;;;;;;1.20;1.10;;;8.20;99.90;;;;;;5024369;28;20404;-79
2021/01/22 05:18:43;;;;;;;1.37;1.27;;;8.20;99.90;;;;;;5025038;28;20197;-79
2021/01/22 05:21:13;;;;;;;1.87;1.47;;;8.20;99.90;;;;;;5024590;28;20428;-79
2021/01/22 05:23:41;;;;;;;1.30;1.20;;;8.20;99.90;;;;;;5035627;28;20375;-77
2021/01/22 05:26:10;;;;;;;1.53;1.43;;;8.20;99.90;;;;;;5034350;28;20363;-77
2021/01/22 05:28:39;;;;;;;1.43;1.33;;;8.20;99.90;;;;;;4995303;28;20389;-79
2021/01/22 05:31:07;;;;;;;2.83;1.30;;;8.30;99.90;;;;;;5042350;28;20415;-78
2021/01/22 05:33:34;;;;;;;1.23;1.13;;;8.20;99.90;;;;;;5029501;28;20427;-79
2021/01/22 05:36:29;;;;;;;1.47;1.37;;;8.30;99.90;;;;;;5026836;28;20375;-79
2021/01/22 05:38:57;;;;;;;1.20;1.10;;;8.30;99.90;;;;;;5044352;28;20399;-77
2021/01/22 05:41:24;;;;;;;1.90;1.30;;;8.30;99.90;;;;;;5042524;28;20888;-78
2021/01/22 05:43:51;;;;;;;2.20;1.80;;;8.40;99.90;;;;;;5043050;28;20396;-78
2021/01/22 05:46:20;;;;;;;1.73;1.63;;;8.40;99.90;;;;;;5024490;28;20418;-79
2021/01/22 05:48:46;;;;;;;1.50;1.40;;;8.40;99.90;;;;;;5024575;28;20403;-79
2021/01/22 05:51:13;;;;;;;2.80;1.33;;;8.40;99.90;;;;;;5026474;28;20867;-79
2021/01/22 05:53:45;;;;;;;3.63;1.97;;;8.40;99.90;;;;;;5004906;28;20248;-79
2021/01/22 05:56:17;;;;;;;2.07;1.40;;;8.50;99.90;;;;;;5039161;28;20382;-78
2021/01/22 05:58:46;;;;;;;1.83;1.30;;;8.50;99.90;;;;;;5042602;28;20392;-79
2021/01/22 06:01:14;;;;;;;1.90;1.40;;;8.40;99.90;;;;;;5023130;28;20507;-79
2021/01/22 06:03:43;;;;;;;4.43;1.33;;;8.40;99.90;;;;;;5042536;28;20402;-79
2021/01/22 06:06:10;;;;;;;1.40;1.30;;;8.50;99.90;;;;;;5040638;28;20503;-79
2021/01/22 06:08:53;;;;;;;2.63;1.40;;;8.50;99.90;;;;;;5042791;28;20370;-79
2021/01/22 06:11:22;;;;;;;1.50;1.40;;;8.40;99.90;;;;;;5008335;28;20834;-78
2021/01/22 06:13:51;;;;;;;1.77;1.63;;;8.40;99.90;;;;;;5022915;28;20375;-79
2021/01/22 06:16:18;;;;;;;2.60;1.57;;;8.30;99.90;;;;;;5023253;28;20387;-78
2021/01/22 06:18:52;;;;;;;2.40;2.13;;;8.40;99.90;;;;;;5007453;28;20398;-79
2021/01/22 06:21:25;;;;;;;1.60;1.50;;;8.30;99.90;;;;;;5005673;28;20390;-79
2021/01/22 06:23:52;;;;;;;1.77;1.60;;;8.30;99.90;;;;;;5023563;28;20382;-79
2021/01/22 06:26:19;;;;;;;3.40;1.97;;;8.20;99.90;;;;;;5021853;28;20509;-79
2021/01/22 06:28:47;;;;;;;2.27;1.40;;;8.20;99.90;;;;;;5024010;28;20375;-79
2021/01/22 06:31:13;;;;;;;4.30;1.50;;;8.20;99.90;;;;;;5023540;28;20409;-78
2021/01/22 06:33:40;;;;;;;1.57;1.47;;;8.20;99.90;;;;;;5022663;28;20428;-78
2021/01/22 06:36:07;;;;;;;2.07;1.50;;;8.10;99.90;;;;;;5022043;28;20378;-79
2021/01/22 06:38:34;;;;;;;1.60;1.50;;;8.10;99.90;;;;;;5005015;28;20743;-79
2021/01/22 06:41:00;;;;;;;1.87;1.73;;;8.20;99.90;;;;;;5022378;28;20421;-79
2021/01/22 06:43:28;;;;;;;8.43;2.33;;;8.20;99.90;;;;;;5023040;28;20373;-79
2021/01/22 06:46:00;;;;;;;1.60;1.37;;;8.20;99.90;;;;;;5005173;28;20425;-79
2021/01/22 06:48:27;;;;;;;1.90;1.60;;;8.30;99.90;;;;;;5033799;28;20444;-80
2021/01/22 06:51:13;;;;;;;2.57;1.83;;;8.30;99.90;;;;;;5049358;28;20382;-77
2021/01/22 06:54:07;;;;;;;2.40;1.50;;;8.30;99.90;;;;;;5054423;28;20410;-79
2021/01/22 06:56:35;;;;;;;3.27;1.60;;;8.30;99.90;;;;;;5042917;28;20467;-79
2021/01/22 06:59:37;;;;;;;2.20;1.93;;;8.30;99.90;;;;;;5024610;28;20389;-79
2021/01/22 07:02:04;;;;;;;2.40;1.70;;;8.30;99.90;;;;;;5025662;28;20759;-79
2021/01/22 07:04:38;;;;;;;1.50;1.40;;;8.20;99.90;;;;;;5009329;28;20379;-79
2021/01/22 07:07:05;;;;;;;2.40;1.57;;;8.20;99.90;;;;;;4982974;28;20584;-80
2021/01/22 07:09:50;;;;;;;2.07;1.40;;;8.20;99.90;;;;;;4967708;28;20440;-77
2021/01/22 07:12:36;;;;;;;5.07;1.47;;;8.10;99.90;;;;;;4978503;28;20395;-79
2021/01/22 07:15:15;;;;;;;4.10;1.73;;;8.10;99.90;;;;;;4983842;28;20428;-78
2021/01/22 07:17:49;;;;;;;2.20;1.83;;;8.10;99.90;;;;;;4983817;28;20436;-79
2021/01/22 07:20:15;;;;;;;1.93;1.77;;;8.10;99.90;;;;;;4975207;28;20389;-79
2021/01/22 07:22:59;;;;;;;2.20;1.20;;;8.10;99.90;;;;;;4952508;29;20782;-79
2021/01/22 07:25:34;;;;;;;2.03;1.60;;;8.10;99.90;;;;;;4965266;29;20195;-79
2021/01/22 07:28:15;;;;;;;1.90;1.50;;;8.20;99.90;;;;;;4949095;29;20465;-79
2021/01/22 07:30:42;;;;;;;1.57;1.47;;;8.20;99.90;;;;;;4944131;29;20447;-79
2021/01/22 07:33:35;;;;;;;2.03;1.80;;;8.20;99.90;;;;;;4944456;29;20435;-79
2021/01/22 07:36:10;;;;;;;2.30;2.10;;;8.20;99.90;;;;;;4943600;29;20434;-80
2021/01/22 07:38:37;;;;;;;4.67;1.90;;;8.30;99.90;;;;;;4976294;28;20439;-81
2021/01/22 07:41:07;;;;;;;2.97;1.60;;;8.30;99.90;;;;;;4979658;28;20444;-80
2021/01/22 07:43:33;;;;;;;2.70;1.73;;;8.40;99.90;;;;;;4979171;28;20520;-80
2021/01/22 07:46:14;;;;;;;1.90;1.80;;;8.30;99.90;;;;;;4985221;28;20421;-80
2021/01/22 07:48:41;;;;;;;5.20;1.90;;;8.40;99.90;;;;;;4983578;28;20429;-80
2021/01/22 07:51:30;;;;;;;2.47;1.50;;;8.40;99.90;;;;;;4983193;28;20567;-80
2021/01/22 07:53:57;;;;;;;2.03;1.80;;;8.40;99.90;;;;;;5025896;28;20427;-80
2021/01/22 07:56:31;;;;;;;1.40;1.30;;;8.30;99.90;;;;;;5028769;28;20443;-79
2021/01/22 07:58:57;;;;;;;2.70;1.53;;;8.30;99.90;;;;;;5041473;28;20430;-80
2021/01/22 08:01:23;;;;;;;2.80;1.50;;;8.40;99.90;;;;;;5042373;28;20461;-80
2021/01/22 08:03:49;;;;;;;2.00;1.90;;;8.40;99.90;;;;;;5045761;28;20560;-80
2021/01/22 08:06:15;;;;;;;8.10;2.10;;;8.40;99.90;;;;;;5041485;28;20483;-79
2021/01/22 08:08:41;;;;;;;1.60;1.50;;;8.40;99.90;;;;;;5024431;28;20481;-79
2021/01/22 08:11:23;;;;;;;1.70;1.60;;;8.50;99.90;;;;;;5035687;28;20180;-80
2021/01/22 08:13:54;;;;;;;1.63;1.53;;;8.50;99.90;;;;;;5023690;28;20196;-78
2021/01/22 08:16:22;;;;;;;4.80;3.00;;;8.50;99.90;;;;;;4999817;28;20403;-77
2021/01/22 08:18:49;;;;;;;3.40;2.70;;;8.50;99.90;;;;;;5020081;28;20920;-78
2021/01/22 08:21:15;;;;;;;2.60;2.13;;;8.60;99.90;;;;;;5038900;28;20402;-79
2021/01/22 08:23:42;;;;;;;2.47;2.07;;;8.60;99.90;;;;;;5002336;28;20551;-79
2021/01/22 08:26:11;;;;;;;2.47;2.20;;;8.60;99.90;;;;;;5040225;28;20435;-78
2021/01/22 08:28:39;;;;;;;1.50;1.30;;;8.70;99.90;;;;;;4984555;28;20452;-80
2021/01/22 08:31:07;;;;;;;3.90;2.53;;;8.60;99.90;;;;;;5033423;28;20406;-78
2021/01/22 08:33:33;;;;;;;1.73;1.63;;;8.60;99.90;;;;;;5022590;28;20440;-78
2021/01/22 08:36:00;;;;;;;1.57;1.47;;;8.70;99.90;;;;;;5024959;28;20515;-80
2021/01/22 08:38:26;;;;;;;3.07;2.77;;;8.60;99.90;;;;;;5040866;28;20445;-80
2021/01/22 08:41:01;;;;;;;2.20;2.03;;;8.60;99.90;;;;;;5030228;28;20413;-82
2021/01/22 08:43:28;;;;;;;7.07;3.00;;;8.60;99.90;;;;;;4992144;28;20460;-83
2021/01/22 08:46:06;;;;;;;4.80;3.03;;;8.50;99.90;;;;;;5032358;28;20440;-83
2021/01/22 08:48:41;;;;;;;2.00;1.40;;;8.50;99.90;;;;;;5026714;28;20476;-83
2021/01/22 08:51:14;;;;;;;2.93;1.60;;;8.60;99.90;;;;;;4977007;28;20448;-84
2021/01/22 08:53:55;;;;;;;3.00;1.50;;;8.50;99.90;;;;;;4977945;28;20438;-81
2021/01/22 08:56:24;;;;;;;9.00;2.50;;;8.50;99.90;;;;;;4960154;29;20437;-84
2021/01/22 09:01:54;;;;;;;1.60;1.50;;;8.60;99.90;;;;;;5130128;23;20920;-80
2021/01/22 09:04:25;;;;;;;3.77;2.77;;;8.70;99.90;;;;;;5046318;28;20421;-80
2021/01/22 09:06:55;;;;;;;2.90;2.30;;;8.70;99.90;;;;;;5064882;28;20513;-80
2021/01/22 09:09:42;;;;;;;1.50;1.30;;;8.80;99.90;;;;;;5040657;28;20405;-80
2021/01/22 09:12:26;;;;;;;2.00;1.90;;;8.80;99.90;;;;;;5030987;28;20419;-80
2021/01/22 09:15:03;;;;;;;2.70;1.60;;;8.90;99.90;;;;;;5054934;28;20448;-80
2021/01/22 09:17:43;;;;;;;1.80;1.67;;;9.00;99.90;;;;;;5062219;28;20399;-80
2021/01/22 09:20:14;;;;;;;1.93;1.57;;;9.10;99.90;;;;;;5056502;28;20528;-80
2021/01/22 09:22:41;;;;;;;4.33;2.30;;;9.40;99.90;;;;;;5035827;28;20417;-80
2021/01/22 09:25:10;;;;;;;3.10;1.90;;;9.80;99.90;;;;;;5062616;28;20424;-78
2021/01/22 09:27:38;;;;;;;1.50;1.40;;;10.80;99.90;;;;;;5058534;28;20420;-81
2021/01/22 09:30:07;;;;;;;2.20;2.00;;;10.90;99.90;;;;;;5056319;28;20420;-80
2021/01/22 09:32:33;;;;;;;1.40;1.30;;;10.90;99.90;;;;;;5053089;28;20476;-80
2021/01/22 09:34:58;;;;;;;1.50;1.40;;;10.90;99.90;;;;;;5054194;28;20914;-80
2021/01/22 09:37:24;;;;;;;2.70;1.17;;;11.60;99.90;;;;;;5063778;28;20512;-80
2021/01/22 09:39:51;;;;;;;2.00;1.80;;;12.50;99.90;;;;;;5056129;28;20632;-78
2021/01/22 09:42:17;;;;;;;5.13;1.90;;;12.80;99.90;;;;;;5043296;28;20218;-80
2021/01/22 09:44:43;;;;;;;4.23;1.73;;;13.30;99.90;;;;;;5024755;28;20444;-80
2021/01/22 09:47:09;;;;;;;2.90;1.90;;;14.70;99.90;;;;;;5043150;28;20462;-81
2021/01/22 09:49:34;;;;;;;3.20;1.70;;;14.70;99.90;;;;;;5037943;28;20434;-80
2021/01/22 09:52:00;;;;;;;2.60;1.50;;;15.10;99.90;;;;;;5053586;28;20202;-79
2021/01/22 09:54:26;;;;;;;4.77;2.03;;;15.00;99.90;;;;;;5029612;28;20585;-81
2021/01/22 09:56:52;;;;;;;2.93;1.93;;;15.10;99.90;;;;;;5054115;28;20202;-81
2021/01/22 09:59:18;;;;;;;1.87;1.77;;;13.90;99.90;;;;;;5044054;28;20530;-81
2021/01/22 10:01:44;;;;;;;3.30;1.60;;;14.30;99.90;;;;;;5065885;28;20658;-81
2021/01/22 10:04:09;;;;;;;3.80;2.00;;;13.80;99.90;;;;;;5024955;28;20354;-79
2021/01/22 10:06:35;;;;;;;3.63;2.03;;;13.60;99.90;;;;;;5056118;28;20526;-81
2021/01/22 10:09:01;;;;;;;2.30;1.77;;;12.80;99.90;;;;;;5056887;28;20211;-80
2021/01/22 10:11:27;;;;;;;2.53;2.13;;;12.30;99.90;;;;;;5062609;28;20167;-80
2021/01/22 10:13:55;;;;;;;2.60;2.40;;;11.80;99.90;;;;;;5058623;28;20168;-80
2021/01/22 10:16:22;;;;;;;2.80;1.90;;;11.50;99.90;;;;;;5065219;28;20576;-80
2021/01/22 10:18:54;;;;;;;5.07;2.13;;;11.60;99.90;;;;;;5042986;28;20445;-80
2021/01/22 10:21:21;;;;;;;3.07;1.83;;;11.30;99.90;;;;;;5041283;28;20426;-80
2021/01/22 10:23:49;;;;;;;2.17;1.63;;;11.50;99.90;;;;;;5041043;28;20441;-80
2021/01/22 10:26:16;;;;;;;2.50;1.80;;;11.50;99.90;;;;;;5059173;28;20442;-81
2021/01/22 10:28:42;;;;;;;5.23;2.10;;;11.60;99.90;;;;;;5038954;28;20424;-80
2021/01/22 10:31:09;;;;;;;2.80;1.70;;;11.60;99.90;;;;;;5054721;28;20439;-79
2021/01/22 10:33:35;;;;;;;2.50;2.30;;;11.50;99.90;;;;;;5033215;28;20219;-80
2021/01/22 10:36:04;;;;;;;2.20;1.33;;;11.50;99.90;;;;;;5012830;28;20467;-80
2021/01/22 10:38:31;;;;;;;4.40;3.07;;;11.70;99.90;;;;;;5011179;28;20433;-80
2021/01/22 10:40:56;;;;;;;3.10;1.23;;;11.70;99.90;;;;;;5010519;28;20512;-80
2021/01/22 10:43:23;;;;;;;2.70;2.40;;;11.70;99.90;;;;;;5010422;28;20598;-79
2021/01/22 10:45:50;;;;;;;2.70;1.90;;;11.60;99.90;;;;;;4964042;28;20262;-80
2021/01/22 10:48:17;;;;;;;4.23;1.67;;;11.70;99.90;;;;;;4976745;28;20474;-82
2021/01/22 10:50:43;;;;;;;3.30;2.00;;;11.50;99.90;;;;;;4956701;28;20546;-81
2021/01/22 10:53:09;;;;;;;2.60;2.30;;;11.50;99.90;;;;;;4969780;28;20418;-80
2021/01/22 10:55:35;;;;;;;6.03;2.03;;;11.50;99.90;;;;;;4958373;28;20441;-81
2021/01/22 10:58:01;;;;;;;1.97;1.47;;;11.50;99.90;;;;;;4964277;28;20174;-80
2021/01/22 11:00:27;;;;;;;2.73;1.63;;;11.50;99.90;;;;;;4974515;28;20531;-77
2021/01/22 11:02:53;;;;;;;3.93;1.90;;;11.50;99.90;;;;;;4961567;28;20484;-81
2021/01/22 11:05:19;;;;;;;2.10;1.80;;;11.50;99.90;;;;;;4962830;28;20492;-81
2021/01/22 11:07:45;;;;;;;2.00;1.90;;;11.50;99.90;;;;;;5006344;28;20209;-78
2021/01/22 11:10:11;;;;;;;3.17;2.87;;;11.40;99.90;;;;;;5026515;28;20193;-81
2021/01/22 11:12:37;;;;;;;6.13;2.70;;;11.50;99.90;;;;;;5014532;28;20204;-78
2021/01/22 11:15:04;;;;;;;8.43;1.87;;;11.40;99.90;;;;;;5031820;28;20414;-78
2021/01/22 11:17:31;;;;;;;3.63;2.17;;;11.50;99.90;;;;;;5056919;28;20195;-77
2021/01/22 11:20:04;;;;;;;6.83;2.80;;;11.40;99.90;;;;;;5050099;28;20440;-78
2021/01/22 11:22:31;;;;;;;7.33;1.90;;;11.50;99.90;;;;;;5065653;28;20458;-79
2021/01/22 11:24:57;;;;;;;1.97;1.87;;;11.50;99.90;;;;;;5066273;28;20413;-79
2021/01/22 11:27:23;;;;;;;2.10;2.00;;;11.50;99.90;;;;;;5044079;28;20462;-79
2021/01/22 11:29:48;;;;;;;3.23;1.77;;;11.40;99.90;;;;;;5060620;28;20491;-81
2021/01/22 11:32:15;;;;;;;2.27;1.77;;;11.40;99.90;;;;;;5063092;28;20409;-80
2021/01/22 11:34:41;;;;;;;3.87;1.80;;;11.50;99.90;;;;;;5068359;28;20195;-80
2021/01/22 11:37:06;;;;;;;1.83;1.50;;;11.60;99.90;;;;;;5052373;28;20425;-81
2021/01/22 11:39:35;;;;;;;3.57;1.73;;;11.70;99.90;;;;;;5069850;28;20199;-81
2021/01/22 11:42:02;;;;;;;2.23;1.57;;;11.80;99.90;;;;;;5069826;28;20199;-80
2021/01/22 11:44:28;;;;;;;5.17;1.83;;;11.80;99.90;;;;;;5066565;28;20529;-80
2021/01/22 11:46:54;;;;;;;3.13;1.47;;;11.90;99.90;;;;;;5037180;28;20483;-80
2021/01/22 11:49:20;;;;;;;4.17;2.20;;;11.90;99.90;;;;;;5069924;28;20194;-79
2021/01/22 11:51:45;;;;;;;2.70;1.30;;;11.90;99.90;;;;;;5076004;28;20194;-79
2021/01/22 11:54:11;;;;;;;3.90;1.30;;;12.00;99.90;;;;;;5067917;28;20210;-80
2021/01/22 11:56:37;;;;;;;2.93;1.83;;;12.00;99.90;;;;;;5072530;28;20183;-80
2021/01/22 11:59:02;;;;;;;3.73;1.90;;;11.90;99.90;;;;;;5066731;28;20195;-79
2021/01/22 12:01:28;;;;;;;2.07;1.70;;;12.00;99.90;;;;;;5046119;28;20297;-79
2021/01/22 12:03:54;;;;;;;4.03;1.57;;;12.10;99.90;;;;;;5069332;28;20175;-80
2021/01/22 12:06:20;;;;;;;10.87;1.73;;;12.00;99.90;;;;;;5067003;28;20199;-80
2021/01/22 12:08:46;;;;;;;3.00;1.40;;;12.00;99.90;;;;;;5076790;28;20171;-79
2021/01/22 12:11:11;;;;;;;3.20;1.53;;;12.10;99.90;;;;;;5072891;28;20218;-80
2021/01/22 12:13:37;;;;;;;3.67;1.40;;;12.30;99.90;;;;;;5070180;28;20282;-80
2021/01/22 12:16:03;;;;;;;1.60;1.50;;;12.40;99.90;;;;;;5078103;28;20195;-79
2021/01/22 12:18:29;;;;;;;1.53;1.43;;;12.50;99.90;;;;;;5051018;28;20247;-79
2021/01/22 12:20:58;;;;;;;1.87;1.20;;;12.60;99.90;;;;;;5073776;28;20445;-80
2021/01/22 12:23:25;;;;;;;2.73;1.53;;;12.60;99.90;;;;;;5072598;28;20502;-79
2021/01/22 12:25:51;;;;;;;3.33;1.87;;;12.50;99.90;;;;;;5069258;28;20446;-79
2021/01/22 12:28:17;;;;;;;2.10;1.73;;;12.50;99.90;;;;;;5055971;28;20465;-79
2021/01/22 12:30:44;;;;;;;2.90;2.00;;;12.40;99.90;;;;;;5054930;28;20187;-80
2021/01/22 12:33:10;;;;;;;2.97;1.40;;;12.40;99.90;;;;;;5049718;28;21021;-79
2021/01/22 12:35:37;;;;;;;2.00;1.30;;;12.40;99.90;;;;;;5076025;28;20420;-78
2021/01/22 12:38:03;;;;;;;2.53;1.50;;;12.60;99.90;;;;;;5069794;28;20426;-79
2021/01/22 12:40:29;;;;;;;4.23;2.10;;;12.70;99.90;;;;;;5043021;28;20454;-79
2021/01/22 12:42:55;;;;;;;1.83;1.70;;;12.80;99.90;;;;;;5069734;28;20856;-80
2021/01/22 12:45:24;;;;;;;6.00;2.07;;;12.80;99.90;;;;;;5065587;28;20202;-81
2021/01/22 12:47:51;;;;;;;1.83;1.50;;;12.90;99.90;;;;;;5067223;28;20652;-81
2021/01/22 12:50:17;;;;;;;2.40;1.53;;;12.70;99.90;;;;;;5060391;28;20405;-79
2021/01/22 12:52:43;;;;;;;2.93;1.63;;;12.80;99.90;;;;;;5056642;28;20498;-80
2021/01/22 12:55:10;;;;;;;1.57;1.47;;;12.90;99.90;;;;;;5065822;28;20429;-81
2021/01/22 12:57:36;;;;;;;3.10;1.60;;;12.90;99.90;;;;;;5048237;28;20223;-80
2021/01/22 13:00:04;;;;;;;2.07;1.80;;;12.80;99.90;;;;;;5073885;28;20480;-81
2021/01/22 13:02:31;;;;;;;10.17;5.13;;;12.80;99.90;;;;;;5068135;28;20175;-80